Renova, Mississippi
Current Conditions -  °F | °C
As of 6:15 AM on Thursday 18 Dec 2014 (Local Time) from KRNV Reporting Station
Drizzle Drizzle  
Wind Chill: 38°   Ceiling: 4400
Heat Index: 41°   Visibility: 10mi
Dew Point: 40°   Wind: 5mph
Humidity: 98%   Direction: 30°NNE
Pressure: 30.23"   Gusts: NA
Location:  33.7903°N, 90.8559°W
Report Text: KRNV 181215Z AUTO 03004KT 10SM -DZ SCT027 OVC044 05/05 A3023 RMK AO2 T00480045
Loading
Personal Weather Stations






























Interactive Weather Map New forecast layout! Learn more

10-Day Weather Forecast

Advertisements
Track Severe Weather on mobile